コロンボ の空港の天気 - METARとTAF

バンダラナイケ国際空港 ( VCBI / CMB ) - スリランカ コロンボ
飛行場実況気象(Metar)
観測時間08/15 00:40 IST (08/14 19:10 UTC)
風向・風速南西 4m/s
視程10km以上
天気現象
全天の8割程度の雲 雲底高度 520m
気温27℃
湿度89%
気圧1008hPa
METARVCBI 141910Z 23008KT 9999 BKN017 27/25 Q1008 NOSIG
過去の天気等 Google飛行場航空写真 Wunderground天気予報

過去48時間のMETAR

飛行場予報(TAF)
発表時間: 8/14 22:30 IST (8/14 17:00 UTC)
予報対象時間: 14日23時 IST ~ 16日5時 IST
風向・風速南南西 3m/s
視程10km以上
全天の4割程度の雲 雲底高度 520m
TAF VCBI 141700Z 1418/1524 20006KT 9999 SCT017 TX30/1508Z TN26/1500Z